createdAt,value
2022-10-20T00:01:02.084Z,99.90
2022-10-20T00:03:35.599Z,99.90
2022-10-20T00:06:15.093Z,99.90
2022-10-20T00:08:43.375Z,99.90
2022-10-20T00:11:12.413Z,99.90
2022-10-20T00:13:40.434Z,99.90
2022-10-20T00:16:08.085Z,99.90
2022-10-20T00:18:35.717Z,99.90
2022-10-20T00:21:13.195Z,99.90
2022-10-20T00:23:40.467Z,99.90
2022-10-20T00:26:17.102Z,99.90
2022-10-20T00:28:44.426Z,99.90
2022-10-20T00:31:12.094Z,99.90
2022-10-20T00:33:39.261Z,99.90
2022-10-20T00:36:10.947Z,99.90
2022-10-20T00:38:37.951Z,99.90
2022-10-20T00:41:05.518Z,99.90
2022-10-20T00:43:50.876Z,99.90
2022-10-20T00:46:21.493Z,99.90
2022-10-20T00:48:52.460Z,99.90
2022-10-20T00:51:26.356Z,99.90
2022-10-20T00:54:00.085Z,99.90
2022-10-20T00:56:27.330Z,99.90
2022-10-20T00:58:54.706Z,99.90
2022-10-20T01:01:22.085Z,99.90
2022-10-20T01:03:51.222Z,99.90
2022-10-20T01:06:22.137Z,99.90
2022-10-20T01:08:52.794Z,99.90
2022-10-20T01:11:35.199Z,99.90
2022-10-20T01:14:34.985Z,99.90
2022-10-20T01:17:23.782Z,99.90
2022-10-20T01:20:24.756Z,99.90
2022-10-20T01:23:23.987Z,99.90
2022-10-20T01:26:01.095Z,99.90
2022-10-20T01:28:37.067Z,99.90
2022-10-20T01:31:16.949Z,99.90
2022-10-20T01:33:56.751Z,99.90
2022-10-20T01:36:41.681Z,99.90
2022-10-20T01:39:16.322Z,99.90
2022-10-20T01:41:51.394Z,99.90
2022-10-20T01:44:20.765Z,99.90
2022-10-20T01:46:48.521Z,99.90
2022-10-20T01:49:16.183Z,99.90
2022-10-20T01:51:43.145Z,99.90
2022-10-20T01:54:21.641Z,99.90
2022-10-20T01:57:03.502Z,99.90
2022-10-20T01:59:35.664Z,99.90
2022-10-20T02:02:25.945Z,99.90
2022-10-20T02:05:17.698Z,99.90
2022-10-20T02:07:44.690Z,99.90
2022-10-20T02:10:36.637Z,99.90
2022-10-20T02:13:07.076Z,99.90
2022-10-20T02:15:39.133Z,99.90
2022-10-20T02:18:08.972Z,99.90
2022-10-20T02:20:37.354Z,99.90
2022-10-20T02:23:06.235Z,99.90
2022-10-20T02:25:34.481Z,99.90
2022-10-20T02:28:02.379Z,99.90
2022-10-20T02:30:31.252Z,99.90
2022-10-20T02:32:58.194Z,99.90
2022-10-20T02:35:31.810Z,99.90
2022-10-20T02:37:59.620Z,99.90
2022-10-20T02:40:27.004Z,99.90
2022-10-20T02:42:53.967Z,99.90
2022-10-20T02:45:21.353Z,99.90
2022-10-20T02:47:48.300Z,99.90
2022-10-20T02:50:17.175Z,99.90
2022-10-20T02:52:44.288Z,99.90
2022-10-20T02:55:11.411Z,99.90
2022-10-20T02:57:38.671Z,99.90
2022-10-20T03:00:07.672Z,99.90
2022-10-20T03:02:34.612Z,99.90
2022-10-20T03:05:02.122Z,99.90
2022-10-20T03:07:29.045Z,99.90
2022-10-20T03:09:56.116Z,99.90
2022-10-20T03:12:23.010Z,99.90
2022-10-20T03:14:50.075Z,99.90
2022-10-20T03:17:16.936Z,99.90
2022-10-20T03:19:43.972Z,99.90
2022-10-20T03:22:10.822Z,99.90
2022-10-20T03:24:37.906Z,99.90
2022-10-20T03:27:04.800Z,99.90
2022-10-20T03:29:31.888Z,99.90
2022-10-20T03:31:58.781Z,99.90
2022-10-20T03:34:25.946Z,99.90
2022-10-20T03:36:53.815Z,99.90
2022-10-20T03:39:20.949Z,99.90
2022-10-20T03:41:47.801Z,99.90
2022-10-20T03:44:14.870Z,99.90
2022-10-20T03:46:41.740Z,99.90
2022-10-20T03:49:08.844Z,99.90
2022-10-20T03:51:35.718Z,99.90
2022-10-20T03:54:02.812Z,99.90
2022-10-20T03:56:29.688Z,99.90
2022-10-20T03:58:56.959Z,99.90
2022-10-20T04:01:29.990Z,99.90
2022-10-20T04:03:57.110Z,99.90
2022-10-20T04:06:24.087Z,99.90
2022-10-20T04:08:51.300Z,99.90
2022-10-20T04:11:18.196Z,99.90
2022-10-20T04:13:45.458Z,99.90
2022-10-20T04:16:12.336Z,99.90
2022-10-20T04:18:39.474Z,99.90
2022-10-20T04:21:06.455Z,99.90
2022-10-20T04:23:33.568Z,99.90
2022-10-20T04:26:00.530Z,99.90
2022-10-20T04:28:27.612Z,99.90
2022-10-20T04:30:54.643Z,99.90
2022-10-20T04:33:21.762Z,99.90
2022-10-20T04:38:20.520Z,99.90
2022-10-20T04:40:54.761Z,99.90
2022-10-20T04:43:22.690Z,99.90
2022-10-20T04:45:49.890Z,99.90
2022-10-20T04:48:17.420Z,99.90
2022-10-20T04:50:44.283Z,99.90
2022-10-20T04:53:11.632Z,99.90
2022-10-20T04:55:38.544Z,99.90
2022-10-20T04:58:05.586Z,99.90
2022-10-20T05:00:32.873Z,99.90
2022-10-20T05:03:00.034Z,99.90
2022-10-20T05:05:26.923Z,99.90
2022-10-20T05:07:54.012Z,99.90
2022-10-20T05:10:20.944Z,99.90
2022-10-20T05:12:48.024Z,99.90
2022-10-20T05:15:15.546Z,99.90
2022-10-20T05:17:42.688Z,99.90
2022-10-20T05:20:09.793Z,99.90
2022-10-20T05:22:37.130Z,99.90
2022-10-20T05:27:52.116Z,99.90
2022-10-20T05:30:18.974Z,99.90
2022-10-20T05:32:46.162Z,99.90
2022-10-20T05:35:13.036Z,99.90
2022-10-20T05:37:41.112Z,99.90
2022-10-20T05:40:08.844Z,99.90
2022-10-20T05:42:36.270Z,99.90
2022-10-20T05:45:04.548Z,99.90
2022-10-20T05:47:31.947Z,99.90
2022-10-20T05:49:58.825Z,99.90
2022-10-20T05:52:25.913Z,99.90
2022-10-20T05:54:52.782Z,99.90
2022-10-20T05:57:20.074Z,99.90
2022-10-20T05:59:46.948Z,99.90
2022-10-20T06:02:14.299Z,99.90
2022-10-20T06:04:41.190Z,99.90
2022-10-20T06:07:11.170Z,99.90
2022-10-20T06:09:39.368Z,99.90
2022-10-20T06:14:38.863Z,99.90
2022-10-20T06:17:05.897Z,99.90
2022-10-20T06:19:32.826Z,99.90
2022-10-20T06:22:03.949Z,99.90
2022-10-20T06:24:34.207Z,99.90
2022-10-20T06:27:02.071Z,99.90
2022-10-20T06:29:29.068Z,99.90
2022-10-20T06:31:56.905Z,99.90
2022-10-20T06:34:25.278Z,99.90
2022-10-20T06:36:53.496Z,99.90
2022-10-20T06:39:23.044Z,99.90
2022-10-20T06:41:55.056Z,99.90
2022-10-20T06:44:24.311Z,99.90
2022-10-20T06:46:54.780Z,99.90
2022-10-20T06:49:22.176Z,99.90
2022-10-20T06:51:49.889Z,99.90
2022-10-20T06:54:16.932Z,99.90
2022-10-20T06:56:44.360Z,99.90
2022-10-20T06:59:11.231Z,99.90
2022-10-20T07:01:39.686Z,99.90
2022-10-20T07:04:10.650Z,99.90
2022-10-20T07:06:39.766Z,99.90
2022-10-20T07:09:11.918Z,99.90
2022-10-20T07:11:39.512Z,99.90
2022-10-20T07:14:06.428Z,99.90
2022-10-20T07:16:35.067Z,99.90
2022-10-20T07:19:03.462Z,99.90
2022-10-20T07:21:35.658Z,99.90
2022-10-20T07:24:05.486Z,96.30
2022-10-20T07:26:35.732Z,87.10
2022-10-20T07:29:03.827Z,81.40
2022-10-20T07:31:43.297Z,78.50
2022-10-20T07:34:28.084Z,78.90
2022-10-20T07:36:56.540Z,79.20
2022-10-20T07:39:23.742Z,77.60
2022-10-20T07:41:51.069Z,74.80
2022-10-20T07:44:18.470Z,68.60
2022-10-20T07:46:46.067Z,62.00
2022-10-20T07:52:00.137Z,56.40
2022-10-20T07:54:27.217Z,55.30
2022-10-20T07:56:54.618Z,53.30
2022-10-20T07:59:21.510Z,52.00
2022-10-20T08:01:48.699Z,52.80
2022-10-20T08:04:15.647Z,53.70
2022-10-20T08:06:42.793Z,53.30
2022-10-20T08:09:09.782Z,53.10
2022-10-20T08:11:36.887Z,53.60
2022-10-20T08:14:04.119Z,52.30
2022-10-20T08:16:35.429Z,50.40
2022-10-20T08:21:43.321Z,47.60
2022-10-20T08:24:10.666Z,46.50
2022-10-20T08:26:37.738Z,47.30
2022-10-20T08:29:04.803Z,46.70
2022-10-20T08:31:31.875Z,45.70
2022-10-20T08:33:59.759Z,44.70
2022-10-20T08:36:28.301Z,43.90
2022-10-20T08:38:56.406Z,44.30
2022-10-20T08:41:27.028Z,45.40
2022-10-20T08:43:57.869Z,43.80
2022-10-20T08:46:33.381Z,44.20
2022-10-20T08:49:00.915Z,43.40
2022-10-20T08:51:33.054Z,44.90
2022-10-20T08:54:02.219Z,45.30
2022-10-20T08:56:31.070Z,45.10
2022-10-20T08:58:58.011Z,44.40
2022-10-20T09:01:32.866Z,45.10
2022-10-20T09:04:38.689Z,44.70
2022-10-20T09:07:17.723Z,44.00
2022-10-20T09:09:44.659Z,43.50
2022-10-20T09:12:15.016Z,43.30
2022-10-20T09:14:42.216Z,42.50
2022-10-20T09:17:17.067Z,43.00
2022-10-20T09:19:52.144Z,42.90
2022-10-20T09:22:20.494Z,42.20
2022-10-20T09:24:48.231Z,41.20
2022-10-20T09:27:37.477Z,40.80
2022-10-20T09:30:23.388Z,41.70
2022-10-20T09:32:50.788Z,43.20
2022-10-20T09:35:31.814Z,44.00
2022-10-20T09:38:18.748Z,44.20
2022-10-20T09:40:54.856Z,43.00
2022-10-20T09:43:22.059Z,42.50
2022-10-20T09:46:03.876Z,47.30
2022-10-20T09:48:47.740Z,52.60
2022-10-20T09:51:21.963Z,60.00
2022-10-20T09:53:58.057Z,65.70
2022-10-20T09:56:41.247Z,71.70
2022-10-20T09:59:26.420Z,77.00
2022-10-20T10:02:18.566Z,86.00
2022-10-20T10:04:49.074Z,95.30
2022-10-20T10:07:27.829Z,99.80
2022-10-20T10:10:02.658Z,99.90
2022-10-20T10:12:34.848Z,99.90
2022-10-20T10:15:06.707Z,99.90
2022-10-20T10:17:42.623Z,99.90
2022-10-20T10:20:12.973Z,99.90
2022-10-20T10:22:41.108Z,99.90
2022-10-20T10:25:16.982Z,99.90
2022-10-20T10:28:03.234Z,99.90
2022-10-20T10:30:35.610Z,99.90
2022-10-20T10:33:17.091Z,99.90
2022-10-20T10:35:44.847Z,99.90
2022-10-20T10:38:14.319Z,99.90
2022-10-20T10:41:06.413Z,99.90
2022-10-20T10:43:49.138Z,99.90
2022-10-20T10:46:29.451Z,99.90
2022-10-20T10:49:36.473Z,99.90
2022-10-20T10:52:30.743Z,99.90
2022-10-20T10:55:11.710Z,99.90
2022-10-20T10:58:02.044Z,99.90
2022-10-20T11:00:38.324Z,99.90
2022-10-20T11:03:16.412Z,99.90
2022-10-20T11:05:57.175Z,99.90
2022-10-20T11:08:45.208Z,99.90
2022-10-20T11:11:26.819Z,99.90
2022-10-20T11:14:10.938Z,99.90
2022-10-20T11:17:03.554Z,99.90
2022-10-20T11:19:49.417Z,99.90
2022-10-20T11:22:22.215Z,99.90
2022-10-20T11:24:57.835Z,99.90
2022-10-20T11:27:34.055Z,99.90
2022-10-20T11:30:15.165Z,99.90
2022-10-20T11:32:52.157Z,99.90
2022-10-20T11:35:35.780Z,99.90
2022-10-20T11:38:02.574Z,99.80
2022-10-20T11:40:35.226Z,99.90
2022-10-20T11:43:26.831Z,99.90
2022-10-20T11:46:00.190Z,99.90
2022-10-20T11:48:52.522Z,99.90
2022-10-20T11:51:31.768Z,99.90
2022-10-20T11:54:11.876Z,99.90
2022-10-20T11:57:09.367Z,99.90
2022-10-20T12:00:04.954Z,99.80
2022-10-20T12:02:44.080Z,99.70
2022-10-20T12:05:46.732Z,99.90
2022-10-20T12:08:35.184Z,99.90
2022-10-20T12:11:16.379Z,99.90
2022-10-20T12:14:13.981Z,99.90
2022-10-20T12:16:55.599Z,99.90
2022-10-20T12:19:29.604Z,99.90
2022-10-20T12:22:07.150Z,99.90
2022-10-20T12:24:50.746Z,99.90
2022-10-20T12:27:21.895Z,99.90
2022-10-20T12:29:52.541Z,99.90
2022-10-20T12:32:24.167Z,99.90
2022-10-20T12:34:52.848Z,99.90
2022-10-20T12:37:25.945Z,99.90
2022-10-20T12:39:55.298Z,99.90
2022-10-20T12:42:33.033Z,99.90
2022-10-20T12:45:05.867Z,99.90
2022-10-20T12:47:36.392Z,99.70
2022-10-20T12:50:08.765Z,99.30
2022-10-20T12:52:40.304Z,98.80
2022-10-20T12:55:23.436Z,99.60
2022-10-20T12:58:10.779Z,99.90
2022-10-20T13:00:38.143Z,99.90
2022-10-20T13:03:44.143Z,99.90
2022-10-20T13:06:23.686Z,99.90
2022-10-20T13:09:03.112Z,99.90
2022-10-20T13:11:37.640Z,99.90
2022-10-20T13:14:13.494Z,99.90
2022-10-20T13:16:43.637Z,99.90
2022-10-20T13:19:16.761Z,99.90
2022-10-20T13:21:49.352Z,99.90
2022-10-20T13:24:42.766Z,99.90
2022-10-20T13:27:12.303Z,99.90
2022-10-20T13:29:44.707Z,99.90
2022-10-20T13:32:17.822Z,99.90
2022-10-20T13:34:54.664Z,99.90
2022-10-20T13:37:44.078Z,99.80
2022-10-20T13:40:45.751Z,99.90
2022-10-20T13:43:36.431Z,99.90
2022-10-20T13:46:19.302Z,99.90
2022-10-20T13:48:55.262Z,99.90
2022-10-20T13:51:29.411Z,99.90
2022-10-20T13:54:00.852Z,99.90
2022-10-20T13:56:40.386Z,99.90
2022-10-20T13:59:24.337Z,99.90
2022-10-20T14:01:55.124Z,99.90
2022-10-20T14:04:29.295Z,99.90
2022-10-20T14:07:02.441Z,99.90
2022-10-20T14:09:29.631Z,99.90
2022-10-20T14:12:08.748Z,99.90
2022-10-20T14:14:36.025Z,99.90
2022-10-20T14:17:05.824Z,99.90
2022-10-20T14:19:33.886Z,99.90
2022-10-20T14:22:16.095Z,99.90
2022-10-20T14:24:48.817Z,99.90
2022-10-20T14:27:25.721Z,99.90
2022-10-20T14:29:54.092Z,99.90
2022-10-20T14:32:29.348Z,99.90
2022-10-20T14:35:23.427Z,99.90
2022-10-20T14:38:09.919Z,99.90
2022-10-20T14:40:38.262Z,99.90
2022-10-20T14:43:15.071Z,99.90
2022-10-20T14:45:53.167Z,99.90
2022-10-20T14:48:21.695Z,99.90
2022-10-20T14:50:49.482Z,99.90
2022-10-20T14:53:31.293Z,99.90
2022-10-20T14:56:02.224Z,99.90
2022-10-20T14:58:55.801Z,99.90
2022-10-20T15:01:31.631Z,99.90
2022-10-20T15:04:06.189Z,99.90
2022-10-20T15:06:34.595Z,99.90
2022-10-20T15:09:01.968Z,99.90
2022-10-20T15:11:31.780Z,99.90
2022-10-20T15:14:00.254Z,99.90
2022-10-20T15:16:45.849Z,99.90
2022-10-20T15:19:21.552Z,99.90
2022-10-20T15:21:50.353Z,99.90
2022-10-20T15:24:17.243Z,99.90
2022-10-20T15:26:44.309Z,99.90
2022-10-20T15:29:11.377Z,99.90
2022-10-20T15:31:38.758Z,99.90
2022-10-20T15:34:05.626Z,99.90
2022-10-20T15:36:33.958Z,99.90
2022-10-20T15:39:01.962Z,99.90
2022-10-20T15:41:32.165Z,99.90
2022-10-20T15:44:17.505Z,99.90
2022-10-20T15:46:45.479Z,99.90
2022-10-20T15:49:13.341Z,99.90
2022-10-20T15:51:43.609Z,99.90
2022-10-20T15:54:14.547Z,99.90
2022-10-20T15:56:41.955Z,99.90
2022-10-20T15:59:08.858Z,99.90
2022-10-20T16:01:36.571Z,99.90
2022-10-20T16:04:14.173Z,99.90
2022-10-20T16:06:42.277Z,99.90
2022-10-20T16:09:11.933Z,99.90
2022-10-20T16:11:42.287Z,99.90
2022-10-20T16:14:09.513Z,99.90
2022-10-20T16:16:36.636Z,99.90
2022-10-20T16:19:03.731Z,99.90
2022-10-20T16:21:30.884Z,99.90
2022-10-20T16:23:57.886Z,99.90
2022-10-20T16:26:25.263Z,99.90
2022-10-20T16:28:52.213Z,99.90
2022-10-20T16:31:20.013Z,99.90
2022-10-20T16:33:47.405Z,99.90
2022-10-20T16:36:16.441Z,99.90
2022-10-20T16:38:44.066Z,99.90
2022-10-20T16:41:13.606Z,99.90
2022-10-20T16:43:42.886Z,99.90
2022-10-20T16:46:11.366Z,99.90
2022-10-20T16:48:42.786Z,99.90
2022-10-20T16:51:15.290Z,99.90
2022-10-20T16:53:42.445Z,99.90
2022-10-20T16:56:09.741Z,99.90
2022-10-20T16:58:36.645Z,99.90
2022-10-20T17:01:08.432Z,99.90
2022-10-20T17:06:12.180Z,99.90
2022-10-20T17:08:39.634Z,99.90
2022-10-20T17:11:09.285Z,99.90
2022-10-20T17:13:37.798Z,99.90
2022-10-20T17:16:12.026Z,99.90
2022-10-20T17:18:39.250Z,99.90
2022-10-20T17:21:07.796Z,99.90
2022-10-20T17:23:40.103Z,99.90
2022-10-20T17:26:13.714Z,99.90
2022-10-20T17:28:42.022Z,99.90
2022-10-20T17:31:12.004Z,99.90
2022-10-20T17:33:39.729Z,99.90
2022-10-20T17:36:07.867Z,99.90
2022-10-20T17:38:35.053Z,99.90
2022-10-20T17:41:11.084Z,99.90
2022-10-20T17:43:38.039Z,99.90
2022-10-20T17:46:11.501Z,99.90
2022-10-20T17:48:38.454Z,99.90
2022-10-20T17:51:11.313Z,99.90
2022-10-20T17:53:40.212Z,99.90
2022-10-20T17:56:28.429Z,99.90
2022-10-20T17:58:56.286Z,99.90
2022-10-20T18:01:32.750Z,99.90
2022-10-20T18:04:05.915Z,99.90
2022-10-20T18:06:34.962Z,99.90
2022-10-20T18:09:05.602Z,99.90
2022-10-20T18:11:34.969Z,99.90
2022-10-20T18:14:02.864Z,99.90
2022-10-20T18:16:31.877Z,99.90
2022-10-20T18:19:00.268Z,99.90
2022-10-20T18:21:28.978Z,99.90
2022-10-20T18:23:57.909Z,99.90
2022-10-20T18:26:25.357Z,99.90
2022-10-20T18:28:52.591Z,99.90
2022-10-20T18:31:23.070Z,99.90
2022-10-20T18:33:54.249Z,99.90
2022-10-20T18:36:21.675Z,99.90
2022-10-20T18:38:48.726Z,99.90
2022-10-20T18:41:25.444Z,99.90
2022-10-20T18:43:57.759Z,99.90
2022-10-20T18:46:27.685Z,99.90
2022-10-20T18:48:55.755Z,99.90
2022-10-20T18:51:23.775Z,99.90
2022-10-20T18:53:55.661Z,99.90
2022-10-20T18:56:25.728Z,99.90
2022-10-20T18:58:58.412Z,99.90
2022-10-20T19:01:29.111Z,99.90
2022-10-20T19:03:57.253Z,99.90
2022-10-20T19:06:26.144Z,99.90
2022-10-20T19:09:04.732Z,99.90
2022-10-20T19:11:34.446Z,99.90
2022-10-20T19:14:01.974Z,99.90
2022-10-20T19:16:32.125Z,99.90
2022-10-20T19:19:01.108Z,99.90
2022-10-20T19:21:29.020Z,99.90
2022-10-20T19:24:02.298Z,99.90
2022-10-20T19:26:35.630Z,99.90
2022-10-20T19:29:04.617Z,99.90
2022-10-20T19:31:35.317Z,99.90
2022-10-20T19:34:08.818Z,99.90
2022-10-20T19:36:37.045Z,99.90
2022-10-20T19:39:05.458Z,99.90
2022-10-20T19:41:32.952Z,99.90
2022-10-20T19:44:00.454Z,99.90
2022-10-20T19:46:27.593Z,99.90
2022-10-20T19:48:54.575Z,99.90
2022-10-20T19:51:22.051Z,99.90
2022-10-20T19:53:49.772Z,99.90
2022-10-20T19:56:17.295Z,99.90
2022-10-20T19:58:46.655Z,99.90
2022-10-20T20:01:14.898Z,99.90
2022-10-20T20:03:42.390Z,99.90
2022-10-20T20:06:18.988Z,99.90
2022-10-20T20:08:48.566Z,99.90
2022-10-20T20:11:23.920Z,99.90
2022-10-20T20:13:53.107Z,99.90
2022-10-20T20:16:20.866Z,99.90
2022-10-20T20:18:48.697Z,99.90
2022-10-20T20:21:16.656Z,99.90
2022-10-20T20:24:00.129Z,99.90
2022-10-20T20:26:31.873Z,99.90
2022-10-20T20:28:59.309Z,99.90
2022-10-20T20:31:27.970Z,99.90
2022-10-20T20:33:56.888Z,99.90
2022-10-20T20:36:27.103Z,99.90
2022-10-20T20:38:57.318Z,99.90
2022-10-20T20:41:26.915Z,99.90
2022-10-20T20:43:54.392Z,99.90
2022-10-20T20:46:23.237Z,99.90
2022-10-20T20:48:50.826Z,99.90
2022-10-20T20:51:18.385Z,99.90
2022-10-20T20:53:45.325Z,99.90
2022-10-20T20:56:15.392Z,99.90
2022-10-20T20:58:45.290Z,99.90
2022-10-20T21:01:34.066Z,99.90
2022-10-20T21:04:04.249Z,99.90
2022-10-20T21:06:56.564Z,99.90
2022-10-20T21:09:20.064Z,99.90
2022-10-20T21:11:48.870Z,99.90
2022-10-20T21:14:15.761Z,99.90
2022-10-20T21:16:43.097Z,99.90
2022-10-20T21:19:10.771Z,99.90
2022-10-20T21:21:43.523Z,99.90
2022-10-20T21:24:12.697Z,99.90
2022-10-20T21:26:40.191Z,99.90
2022-10-20T21:29:07.116Z,99.90
2022-10-20T21:31:34.315Z,99.90
2022-10-20T21:34:03.262Z,99.90
2022-10-20T21:36:34.783Z,99.90
2022-10-20T21:39:03.555Z,99.90
2022-10-20T21:41:33.588Z,99.90
2022-10-20T21:44:02.162Z,99.90
2022-10-20T21:46:32.044Z,99.90
2022-10-20T21:49:07.520Z,99.90
2022-10-20T21:51:43.725Z,99.90
2022-10-20T21:54:15.965Z,99.90
2022-10-20T21:56:44.847Z,99.90
2022-10-20T21:59:17.225Z,99.90
2022-10-20T22:01:45.366Z,99.90
2022-10-20T22:04:12.890Z,99.90
2022-10-20T22:06:40.805Z,99.90
2022-10-20T22:09:08.926Z,99.90
2022-10-20T22:11:38.994Z,99.90
2022-10-20T22:14:06.395Z,99.90
2022-10-20T22:16:37.785Z,99.90
2022-10-20T22:19:12.090Z,99.90
2022-10-20T22:21:42.271Z,99.90
2022-10-20T22:24:10.077Z,99.90
2022-10-20T22:26:37.408Z,99.90
2022-10-20T22:29:06.028Z,99.90
2022-10-20T22:31:33.347Z,99.90
2022-10-20T22:34:00.385Z,99.90
2022-10-20T22:36:29.075Z,99.90
2022-10-20T22:38:56.514Z,99.90
2022-10-20T22:41:23.697Z,99.90
2022-10-20T22:43:50.753Z,99.90
2022-10-20T22:46:18.201Z,99.90
2022-10-20T22:48:46.312Z,99.90
2022-10-20T22:51:13.944Z,99.90
2022-10-20T22:53:41.328Z,99.90
2022-10-20T22:56:21.129Z,99.90
2022-10-20T22:58:48.637Z,99.90
2022-10-20T23:01:18.781Z,99.90
2022-10-20T23:03:46.224Z,99.90
2022-10-20T23:06:16.676Z,99.90
2022-10-20T23:08:46.445Z,99.90
2022-10-20T23:11:14.817Z,99.90
2022-10-20T23:13:41.746Z,99.90
2022-10-20T23:16:09.906Z,99.90
2022-10-20T23:18:37.194Z,99.90
2022-10-20T23:21:05.234Z,99.90
2022-10-20T23:23:32.887Z,99.90
2022-10-20T23:26:02.291Z,99.90
2022-10-20T23:28:31.717Z,99.90
2022-10-20T23:31:25.003Z,99.90
2022-10-20T23:33:55.351Z,99.90
2022-10-20T23:36:22.923Z,99.90
2022-10-20T23:38:49.853Z,99.90
2022-10-20T23:41:17.070Z,99.90
2022-10-20T23:43:43.979Z,99.90
2022-10-20T23:46:14.703Z,99.90
2022-10-20T23:48:41.835Z,99.90
2022-10-20T23:51:09.250Z,99.90
2022-10-20T23:53:36.449Z,99.90
2022-10-20T23:56:03.737Z,99.90
2022-10-20T23:58:30.620Z,99.90
